createdAt,value
2023-03-19T00:02:00.533Z,8.63
2023-03-19T00:04:28.987Z,7.77
2023-03-19T00:06:55.916Z,6.53
2023-03-19T00:09:22.884Z,7.80
2023-03-19T00:11:49.573Z,8.03
2023-03-19T00:14:17.112Z,8.17
2023-03-19T00:16:43.803Z,7.30
2023-03-19T00:19:10.490Z,7.97
2023-03-19T00:21:37.173Z,8.30
2023-03-19T00:24:04.294Z,8.47
2023-03-19T00:26:32.934Z,7.90
2023-03-19T00:29:00.315Z,8.97
2023-03-19T00:31:28.897Z,8.90
2023-03-19T00:33:58.161Z,8.27
2023-03-19T00:36:27.121Z,8.37
2023-03-19T00:38:54.071Z,9.50
2023-03-19T00:41:21.658Z,10.53
2023-03-19T00:43:52.974Z,10.87
2023-03-19T00:46:19.789Z,8.57
2023-03-19T00:48:46.440Z,9.13
2023-03-19T00:51:13.223Z,9.13
2023-03-19T00:53:42.257Z,9.20
2023-03-19T00:56:11.453Z,9.83
2023-03-19T00:58:38.847Z,9.03
2023-03-19T01:01:06.042Z,8.50
2023-03-19T01:03:32.721Z,8.20
2023-03-19T01:05:59.836Z,8.50
2023-03-19T01:08:27.324Z,7.80
2023-03-19T01:10:54.328Z,8.37
2023-03-19T01:13:20.979Z,9.13
2023-03-19T01:15:51.378Z,8.33
2023-03-19T01:18:18.020Z,7.70
2023-03-19T01:20:44.735Z,7.40
2023-03-19T01:23:11.438Z,7.57
2023-03-19T01:25:39.378Z,6.97
2023-03-19T01:28:07.564Z,7.70
2023-03-19T01:30:34.617Z,6.97
2023-03-19T01:33:01.859Z,7.87
2023-03-19T01:35:28.960Z,7.43
2023-03-19T01:37:55.669Z,7.30
2023-03-19T01:40:22.436Z,7.03
2023-03-19T01:43:13.953Z,6.90
2023-03-19T01:45:42.444Z,6.20
2023-03-19T01:48:31.835Z,7.17
2023-03-19T01:51:00.829Z,7.03
2023-03-19T01:53:31.501Z,7.40
2023-03-19T01:56:07.144Z,6.60
2023-03-19T01:58:33.870Z,7.33
2023-03-19T02:01:00.512Z,6.77
2023-03-19T02:03:27.243Z,6.40
2023-03-19T02:05:56.435Z,6.20
2023-03-19T02:08:24.362Z,6.60
2023-03-19T02:10:53.670Z,5.87
2023-03-19T02:13:20.691Z,6.73
2023-03-19T02:15:48.039Z,6.77
2023-03-19T02:18:15.998Z,5.70
2023-03-19T02:21:06.696Z,6.10
2023-03-19T02:24:12.239Z,6.20
2023-03-19T02:26:40.369Z,6.17
2023-03-19T02:29:07.405Z,6.47
2023-03-19T02:31:34.129Z,6.23
2023-03-19T02:34:01.543Z,5.90
2023-03-19T02:36:34.563Z,6.37
2023-03-19T02:39:04.276Z,5.70
2023-03-19T02:41:32.977Z,5.37
2023-03-19T02:44:03.159Z,5.47
2023-03-19T02:46:29.783Z,5.63
2023-03-19T02:48:56.360Z,5.87
2023-03-19T02:51:23.301Z,5.30
2023-03-19T02:53:50.320Z,6.03
2023-03-19T02:56:17.114Z,5.23
2023-03-19T02:58:43.750Z,5.30
2023-03-19T03:01:10.490Z,4.93
2023-03-19T03:03:37.409Z,4.73
2023-03-19T03:06:04.348Z,4.97
2023-03-19T03:08:31.177Z,4.87
2023-03-19T03:10:57.799Z,4.87
2023-03-19T03:13:24.367Z,5.07
2023-03-19T03:15:51.635Z,4.30
2023-03-19T03:18:19.299Z,4.77
2023-03-19T03:20:45.910Z,5.70
2023-03-19T03:23:12.844Z,5.40
2023-03-19T03:25:39.456Z,5.33
2023-03-19T03:28:06.162Z,5.73
2023-03-19T03:30:33.183Z,5.77
2023-03-19T03:33:00.002Z,5.30
2023-03-19T03:35:27.213Z,4.83
2023-03-19T03:37:53.951Z,5.53
2023-03-19T03:40:21.296Z,4.70
2023-03-19T03:42:47.942Z,5.40
2023-03-19T03:45:15.286Z,5.33
2023-03-19T03:47:42.302Z,5.00
2023-03-19T03:50:11.110Z,4.40
2023-03-19T03:52:38.464Z,4.87
2023-03-19T03:55:05.543Z,5.10
2023-03-19T03:57:32.247Z,4.27
2023-03-19T03:59:59.095Z,5.30
2023-03-19T04:02:26.075Z,4.43
2023-03-19T04:04:53.386Z,4.30
2023-03-19T04:07:20.708Z,4.33
2023-03-19T04:09:47.397Z,4.40
2023-03-19T04:12:14.431Z,5.20
2023-03-19T04:14:41.064Z,4.90
2023-03-19T04:17:08.174Z,4.90
2023-03-19T04:19:34.989Z,5.17
2023-03-19T04:22:03.482Z,4.23
2023-03-19T04:24:30.686Z,4.20
2023-03-19T04:26:57.299Z,3.90
2023-03-19T04:29:24.042Z,4.43
2023-03-19T04:31:51.198Z,4.73
2023-03-19T04:34:17.972Z,4.20
2023-03-19T04:36:44.603Z,4.90
2023-03-19T04:39:11.204Z,4.87
2023-03-19T04:41:38.570Z,5.43
2023-03-19T04:44:05.218Z,4.60
2023-03-19T04:46:31.892Z,4.30
2023-03-19T04:48:59.825Z,4.43
2023-03-19T04:51:26.447Z,5.10
2023-03-19T04:53:53.257Z,4.90
2023-03-19T04:56:19.863Z,4.10
2023-03-19T04:58:46.645Z,4.43
2023-03-19T05:01:13.393Z,4.30
2023-03-19T05:03:40.087Z,4.60
2023-03-19T05:06:07.685Z,4.40
2023-03-19T05:08:34.426Z,4.40
2023-03-19T05:11:01.510Z,4.10
2023-03-19T05:13:28.394Z,4.40
2023-03-19T05:15:55.419Z,4.50
2023-03-19T05:18:22.852Z,5.00
2023-03-19T05:20:49.611Z,4.20
2023-03-19T05:23:17.837Z,4.70
2023-03-19T05:25:44.567Z,4.90
2023-03-19T05:28:11.453Z,5.40
2023-03-19T05:30:38.341Z,4.63
2023-03-19T05:33:05.029Z,4.73
2023-03-19T05:35:31.855Z,5.10
2023-03-19T05:37:58.892Z,4.47
2023-03-19T05:40:25.742Z,4.90
2023-03-19T05:42:52.346Z,5.10
2023-03-19T05:45:19.470Z,4.93
2023-03-19T05:47:50.119Z,5.07
2023-03-19T05:50:18.190Z,5.53
2023-03-19T05:52:44.799Z,4.70
2023-03-19T05:55:12.048Z,5.60
2023-03-19T05:57:38.702Z,6.60
2023-03-19T06:00:07.591Z,5.17
2023-03-19T06:02:36.023Z,5.43
2023-03-19T06:05:02.988Z,6.03
2023-03-19T06:07:29.646Z,6.17
2023-03-19T06:09:56.310Z,6.23
2023-03-19T06:12:23.708Z,6.00
2023-03-19T06:14:50.646Z,6.00
2023-03-19T06:17:17.342Z,6.20
2023-03-19T06:19:44.160Z,6.23
2023-03-19T06:22:11.246Z,6.20
2023-03-19T06:24:37.908Z,6.90
2023-03-19T06:27:04.786Z,6.17
2023-03-19T06:29:31.594Z,7.17
2023-03-19T06:31:58.375Z,6.80
2023-03-19T06:34:25.468Z,6.70
2023-03-19T06:36:53.751Z,7.53
2023-03-19T06:39:21.061Z,7.03
2023-03-19T06:41:47.729Z,7.87
2023-03-19T06:44:14.414Z,6.73
2023-03-19T06:46:40.990Z,7.63
2023-03-19T06:49:07.876Z,6.50
2023-03-19T06:51:34.505Z,7.20
2023-03-19T06:54:01.155Z,6.27
2023-03-19T06:56:27.844Z,7.70
2023-03-19T06:58:54.467Z,7.20
2023-03-19T07:01:21.974Z,6.40
2023-03-19T07:03:48.823Z,6.00
2023-03-19T07:06:15.721Z,7.50
2023-03-19T07:08:46.190Z,5.90
2023-03-19T07:11:13.925Z,7.90
2023-03-19T07:13:40.918Z,7.67
2023-03-19T07:16:08.562Z,7.40
2023-03-19T07:18:35.574Z,6.10
2023-03-19T07:21:02.187Z,8.27
2023-03-19T07:23:28.782Z,7.93
2023-03-19T07:25:55.576Z,7.20
2023-03-19T07:28:23.043Z,7.53
2023-03-19T07:30:53.088Z,7.47
2023-03-19T07:33:20.327Z,8.70
2023-03-19T07:35:47.193Z,7.30
2023-03-19T07:38:14.672Z,7.90
2023-03-19T07:40:45.544Z,8.43
2023-03-19T07:43:18.210Z,7.83
2023-03-19T07:45:44.902Z,7.67
2023-03-19T07:48:12.484Z,7.87
2023-03-19T07:50:39.225Z,5.80
2023-03-19T07:53:06.320Z,6.70
2023-03-19T07:55:32.966Z,7.27
2023-03-19T07:57:59.903Z,6.77
2023-03-19T08:00:27.312Z,7.57
2023-03-19T08:02:54.005Z,7.20
2023-03-19T08:05:20.736Z,6.90
2023-03-19T08:07:49.432Z,7.73
2023-03-19T08:10:16.266Z,9.10
2023-03-19T08:12:43.077Z,15.10
2023-03-19T08:15:11.721Z,9.87
2023-03-19T08:17:38.895Z,7.90
2023-03-19T08:20:08.270Z,7.97
2023-03-19T08:22:36.532Z,7.63
2023-03-19T08:25:04.531Z,9.10
2023-03-19T08:27:31.518Z,6.40
2023-03-19T08:29:58.873Z,6.30
2023-03-19T08:32:26.008Z,7.97
2023-03-19T08:34:52.915Z,7.43
2023-03-19T08:37:19.535Z,7.87
2023-03-19T08:39:46.220Z,8.27
2023-03-19T08:42:13.033Z,8.43
2023-03-19T08:44:39.625Z,7.50
2023-03-19T08:47:06.482Z,7.30
2023-03-19T08:49:33.143Z,7.10
2023-03-19T08:51:59.724Z,8.50
2023-03-19T08:54:26.334Z,6.20
2023-03-19T08:56:52.933Z,7.00
2023-03-19T08:59:19.638Z,6.87
2023-03-19T09:01:54.235Z,6.37
2023-03-19T09:04:22.039Z,5.97
2023-03-19T09:06:51.476Z,6.00
2023-03-19T09:09:23.116Z,6.47
2023-03-19T09:11:49.742Z,6.27
2023-03-19T09:14:16.780Z,4.93
2023-03-19T09:16:43.469Z,7.93
2023-03-19T09:19:10.629Z,7.07
2023-03-19T09:21:37.489Z,7.03
2023-03-19T09:24:04.528Z,5.90
2023-03-19T09:26:31.200Z,6.30
2023-03-19T09:28:58.789Z,7.00
2023-03-19T09:31:27.281Z,6.60
2023-03-19T09:33:55.725Z,5.20
2023-03-19T09:36:22.302Z,4.37
2023-03-19T09:38:48.942Z,4.23
2023-03-19T09:41:46.090Z,3.30
2023-03-19T09:44:34.728Z,4.00
2023-03-19T09:47:25.722Z,3.40
2023-03-19T09:49:55.597Z,4.47
2023-03-19T09:52:41.445Z,5.70
2023-03-19T09:55:47.795Z,5.17
2023-03-19T09:58:21.703Z,4.70
2023-03-19T10:00:51.239Z,10.33
2023-03-19T10:04:00.714Z,3.57
2023-03-19T10:06:40.235Z,3.20
2023-03-19T10:09:34.165Z,3.30
2023-03-19T10:12:31.587Z,3.60
2023-03-19T10:15:10.179Z,4.10
2023-03-19T10:17:54.890Z,3.93
2023-03-19T10:20:43.033Z,4.43
2023-03-19T10:23:46.400Z,3.70
2023-03-19T10:26:16.420Z,3.57
2023-03-19T10:28:46.530Z,2.73
2023-03-19T10:31:26.273Z,4.13
2023-03-19T10:34:25.948Z,4.53
2023-03-19T10:37:00.273Z,3.80
2023-03-19T10:39:28.253Z,3.27
2023-03-19T10:42:09.065Z,3.80
2023-03-19T10:44:42.233Z,3.73
2023-03-19T10:47:14.973Z,3.13
2023-03-19T10:49:42.098Z,2.67
2023-03-19T10:52:30.554Z,2.87
2023-03-19T10:55:04.517Z,2.33
2023-03-19T10:57:34.040Z,2.17
2023-03-19T11:00:08.971Z,1.77
2023-03-19T11:02:36.365Z,2.40
2023-03-19T11:05:13.435Z,2.60
2023-03-19T11:07:40.664Z,2.10
2023-03-19T11:10:16.127Z,2.10
2023-03-19T11:12:51.701Z,2.20
2023-03-19T11:15:23.352Z,2.87
2023-03-19T11:17:58.217Z,2.33
2023-03-19T11:20:32.505Z,2.50
2023-03-19T11:23:02.778Z,2.77
2023-03-19T11:25:41.459Z,2.43
2023-03-19T11:28:09.861Z,3.20
2023-03-19T11:31:08.697Z,3.10
2023-03-19T11:33:56.066Z,2.67
2023-03-19T11:36:31.063Z,3.13
2023-03-19T11:39:00.645Z,2.83
2023-03-19T11:41:55.568Z,3.47
2023-03-19T11:44:29.144Z,3.00
2023-03-19T11:47:27.230Z,3.70
2023-03-19T11:50:33.408Z,3.90
2023-03-19T11:53:21.555Z,3.20
2023-03-19T11:56:15.380Z,4.23
2023-03-19T11:58:42.080Z,3.23
2023-03-19T12:01:39.351Z,3.63
2023-03-19T12:04:30.979Z,3.60
2023-03-19T12:07:09.067Z,5.03
2023-03-19T12:09:53.822Z,4.10
2023-03-19T12:12:30.592Z,4.37
2023-03-19T12:15:36.863Z,4.00
2023-03-19T12:18:19.332Z,4.40
2023-03-19T12:21:10.362Z,4.00
2023-03-19T12:23:49.005Z,4.10
2023-03-19T12:26:43.852Z,5.03
2023-03-19T12:29:18.457Z,3.83
2023-03-19T12:31:48.030Z,4.87
2023-03-19T12:34:29.671Z,3.87
2023-03-19T12:37:19.842Z,4.03
2023-03-19T12:39:54.643Z,4.27
2023-03-19T12:42:22.651Z,4.40
2023-03-19T12:44:56.974Z,3.80
2023-03-19T12:47:32.645Z,4.43
2023-03-19T12:50:13.670Z,3.93
2023-03-19T12:52:42.625Z,4.40
2023-03-19T12:55:12.398Z,4.20
2023-03-19T12:57:57.174Z,3.53
2023-03-19T13:00:44.825Z,3.60
2023-03-19T13:03:37.591Z,2.60
2023-03-19T13:06:12.810Z,2.53
2023-03-19T13:08:55.227Z,3.70
2023-03-19T13:11:28.127Z,2.80
2023-03-19T13:14:35.943Z,2.93
2023-03-19T13:17:21.504Z,2.50
2023-03-19T13:19:56.167Z,2.60
2023-03-19T13:22:34.332Z,3.07
2023-03-19T13:25:02.469Z,2.47
2023-03-19T13:27:34.883Z,3.17
2023-03-19T13:30:07.429Z,3.23
2023-03-19T13:32:42.062Z,2.87
2023-03-19T13:35:23.151Z,2.40
2023-03-19T13:37:58.975Z,2.83
2023-03-19T13:40:48.294Z,2.73
2023-03-19T13:43:30.260Z,3.50
2023-03-19T13:46:15.830Z,3.13
2023-03-19T13:48:45.503Z,2.67
2023-03-19T13:51:18.095Z,3.57
2023-03-19T13:54:14.746Z,3.30
2023-03-19T13:57:01.202Z,3.40
2023-03-19T13:59:29.868Z,2.77
2023-03-19T14:01:57.672Z,2.57
2023-03-19T14:04:29.206Z,3.00
2023-03-19T14:06:57.036Z,3.57
2023-03-19T14:09:35.167Z,3.57
2023-03-19T14:12:22.936Z,3.40
2023-03-19T14:15:05.349Z,3.00
2023-03-19T14:17:33.656Z,3.70
2023-03-19T14:20:16.619Z,3.30
2023-03-19T14:23:00.762Z,3.40
2023-03-19T14:25:48.134Z,3.70
2023-03-19T14:28:20.568Z,3.47
2023-03-19T14:30:51.600Z,3.60
2023-03-19T14:33:25.520Z,3.20
2023-03-19T14:35:52.854Z,3.40
2023-03-19T14:38:43.950Z,3.43
2023-03-19T14:41:17.671Z,3.83
2023-03-19T14:44:11.698Z,3.20
2023-03-19T14:47:13.082Z,4.40
2023-03-19T14:50:07.542Z,4.20
2023-03-19T14:52:58.235Z,11.00
2023-03-19T14:55:37.261Z,5.37
2023-03-19T14:58:05.107Z,7.43
2023-03-19T15:00:47.533Z,4.90
2023-03-19T15:03:37.182Z,4.63
2023-03-19T15:06:06.791Z,4.60
2023-03-19T15:08:36.861Z,5.23
2023-03-19T15:11:18.766Z,5.30
2023-03-19T15:13:57.312Z,5.37
2023-03-19T15:16:33.563Z,5.13
2023-03-19T15:19:00.895Z,5.10
2023-03-19T15:21:32.128Z,5.23
2023-03-19T15:23:59.209Z,6.43
2023-03-19T15:26:37.004Z,6.37
2023-03-19T15:29:04.609Z,5.80
2023-03-19T15:31:51.715Z,7.43
2023-03-19T15:34:27.719Z,8.40
2023-03-19T15:37:15.296Z,8.30
2023-03-19T15:39:47.996Z,10.03
2023-03-19T15:42:16.617Z,10.50
2023-03-19T15:44:48.108Z,10.97
2023-03-19T15:47:21.597Z,11.80
2023-03-19T15:50:12.895Z,12.73
2023-03-19T15:52:43.121Z,10.37
2023-03-19T15:55:12.526Z,11.40
2023-03-19T15:57:40.505Z,12.10
2023-03-19T16:00:10.010Z,11.30
2023-03-19T16:02:42.451Z,12.70
2023-03-19T16:05:32.110Z,11.07
2023-03-19T16:08:08.553Z,11.90
2023-03-19T16:10:38.642Z,11.27
2023-03-19T16:13:31.622Z,11.83
2023-03-19T16:16:20.078Z,11.47
2023-03-19T16:18:52.016Z,12.40
2023-03-19T16:21:24.654Z,14.17
2023-03-19T16:24:08.151Z,13.47
2023-03-19T16:26:46.651Z,14.80
2023-03-19T16:29:22.115Z,13.30
2023-03-19T16:32:01.730Z,13.37
2023-03-19T16:34:40.536Z,12.63
2023-03-19T16:37:33.129Z,13.53
2023-03-19T16:40:13.919Z,12.73
2023-03-19T16:42:42.381Z,12.70
2023-03-19T16:45:15.317Z,12.90
2023-03-19T16:47:43.100Z,12.17
2023-03-19T16:50:10.852Z,12.40
2023-03-19T16:52:39.539Z,12.00
2023-03-19T16:55:21.424Z,12.90
2023-03-19T16:57:55.921Z,13.47
2023-03-19T17:00:24.594Z,11.87
2023-03-19T17:02:52.692Z,13.30
2023-03-19T17:05:19.450Z,13.23
2023-03-19T17:07:46.138Z,12.10
2023-03-19T17:10:20.922Z,12.53
2023-03-19T17:12:50.359Z,11.50
2023-03-19T17:15:25.204Z,12.03
2023-03-19T17:17:51.921Z,12.37
2023-03-19T17:20:22.259Z,13.37
2023-03-19T17:22:48.908Z,13.80
2023-03-19T17:25:18.319Z,13.30
2023-03-19T17:27:45.744Z,13.63
2023-03-19T17:30:13.363Z,13.73
2023-03-19T17:32:43.838Z,18.83
2023-03-19T17:35:16.002Z,25.53
2023-03-19T17:37:43.435Z,17.13
2023-03-19T17:40:25.095Z,100.60
2023-03-19T17:42:52.189Z,15.67
2023-03-19T17:45:23.123Z,14.90
2023-03-19T17:47:53.312Z,14.57
2023-03-19T17:50:23.363Z,15.37
2023-03-19T17:52:52.069Z,15.13
2023-03-19T17:55:19.851Z,15.77
2023-03-19T17:57:46.948Z,14.63
2023-03-19T18:00:13.991Z,12.63
2023-03-19T18:02:41.380Z,12.97
2023-03-19T18:05:26.091Z,13.53
2023-03-19T18:07:56.284Z,13.17
2023-03-19T18:10:29.635Z,13.70
2023-03-19T18:12:59.879Z,16.20
2023-03-19T18:15:31.403Z,14.60
2023-03-19T18:18:00.549Z,15.00
2023-03-19T18:20:32.975Z,14.70
2023-03-19T18:22:59.672Z,14.93
2023-03-19T18:25:27.250Z,14.13
2023-03-19T18:27:54.347Z,16.00
2023-03-19T18:30:22.997Z,15.00
2023-03-19T18:32:54.526Z,16.00
2023-03-19T18:35:24.501Z,16.20
2023-03-19T18:37:52.029Z,16.13
2023-03-19T18:40:22.840Z,16.37
2023-03-19T18:42:49.876Z,16.43
2023-03-19T18:45:18.127Z,16.20
2023-03-19T18:47:46.781Z,17.07
2023-03-19T18:50:21.371Z,16.40
2023-03-19T18:52:50.874Z,16.90
2023-03-19T18:55:18.690Z,18.13
2023-03-19T18:57:54.092Z,16.63
2023-03-19T19:00:30.881Z,16.80
2023-03-19T19:02:58.615Z,16.90
2023-03-19T19:05:28.612Z,16.83
2023-03-19T19:08:02.702Z,16.90
2023-03-19T19:10:33.888Z,17.53
2023-03-19T19:13:01.329Z,15.90
2023-03-19T19:15:34.897Z,16.17
2023-03-19T19:18:12.974Z,16.30
2023-03-19T19:20:39.677Z,16.00
2023-03-19T19:23:06.513Z,17.13
2023-03-19T19:25:33.346Z,17.47
2023-03-19T19:28:06.107Z,18.47
2023-03-19T19:30:33.059Z,18.60
2023-03-19T19:33:00.126Z,17.80
2023-03-19T19:35:28.447Z,19.27
2023-03-19T19:37:55.461Z,19.37
2023-03-19T19:40:27.757Z,19.33
2023-03-19T19:42:54.496Z,21.27
2023-03-19T19:45:28.244Z,19.90
2023-03-19T19:47:56.427Z,21.20
2023-03-19T19:50:25.312Z,21.57
2023-03-19T19:52:52.763Z,22.50
2023-03-19T19:55:19.492Z,20.83
2023-03-19T19:57:46.684Z,21.70
2023-03-19T20:00:22.459Z,20.57
2023-03-19T20:02:50.265Z,22.37
2023-03-19T20:05:23.008Z,24.67
2023-03-19T20:07:55.716Z,23.60
2023-03-19T20:10:25.923Z,24.40
2023-03-19T20:12:55.217Z,27.87
2023-03-19T20:15:25.586Z,27.80
2023-03-19T20:17:53.836Z,26.73
2023-03-19T20:20:27.036Z,28.07
2023-03-19T20:22:54.996Z,30.90
2023-03-19T20:25:25.310Z,29.47
2023-03-19T20:27:56.567Z,29.60
2023-03-19T20:30:35.431Z,28.30
2023-03-19T20:33:02.136Z,28.97
2023-03-19T20:35:31.988Z,28.33
2023-03-19T20:38:00.323Z,27.80
2023-03-19T20:40:36.655Z,26.70
2023-03-19T20:43:05.119Z,29.50
2023-03-19T20:45:37.710Z,27.37
2023-03-19T20:48:13.133Z,27.30
2023-03-19T20:50:39.906Z,24.60
2023-03-19T20:53:06.611Z,26.43
2023-03-19T20:55:35.244Z,25.53
2023-03-19T20:58:09.357Z,24.47
2023-03-19T21:00:36.069Z,25.30
2023-03-19T21:03:02.919Z,25.30
2023-03-19T21:05:37.224Z,23.23
2023-03-19T21:08:06.448Z,24.37
2023-03-19T21:10:44.457Z,24.20
2023-03-19T21:13:18.964Z,22.97
2023-03-19T21:15:46.925Z,25.20
2023-03-19T21:18:13.809Z,23.10
2023-03-19T21:20:42.934Z,23.10
2023-03-19T21:23:35.677Z,21.77
2023-03-19T21:26:16.269Z,20.57
2023-03-19T21:28:44.152Z,21.30
2023-03-19T21:31:18.811Z,19.63
2023-03-19T21:33:47.540Z,21.10
2023-03-19T21:36:15.053Z,20.77
2023-03-19T21:38:42.198Z,18.63
2023-03-19T21:41:18.401Z,20.63
2023-03-19T21:43:53.848Z,18.87
2023-03-19T21:46:25.246Z,17.47
2023-03-19T21:48:56.551Z,20.30
2023-03-19T21:51:25.005Z,20.47
2023-03-19T21:53:51.824Z,18.50
2023-03-19T21:56:24.232Z,19.50
2023-03-19T21:58:52.962Z,17.70
2023-03-19T22:01:24.762Z,20.60
2023-03-19T22:03:52.907Z,18.10
2023-03-19T22:06:19.782Z,19.40
2023-03-19T22:08:48.170Z,19.53
2023-03-19T22:11:28.595Z,19.40
2023-03-19T22:14:04.158Z,18.77
2023-03-19T22:16:34.836Z,19.70
2023-03-19T22:19:01.683Z,19.20
2023-03-19T22:21:30.851Z,20.10
2023-03-19T22:23:57.569Z,19.60
2023-03-19T22:26:24.131Z,19.07
2023-03-19T22:28:50.930Z,20.27
2023-03-19T22:31:17.716Z,25.87
2023-03-19T22:33:44.620Z,20.30
2023-03-19T22:36:13.845Z,22.40
2023-03-19T22:38:41.586Z,19.87
2023-03-19T22:41:14.304Z,20.37
2023-03-19T22:43:41.158Z,22.27
2023-03-19T22:46:11.437Z,20.60
2023-03-19T22:48:38.661Z,20.97
2023-03-19T22:51:05.934Z,21.87
2023-03-19T22:53:35.202Z,20.00
2023-03-19T22:56:03.674Z,20.20
2023-03-19T22:58:30.999Z,22.10
2023-03-19T23:00:57.921Z,21.30
2023-03-19T23:03:30.605Z,21.70
2023-03-19T23:06:04.083Z,21.07
2023-03-19T23:08:30.753Z,22.20
2023-03-19T23:10:57.899Z,22.23
2023-03-19T23:13:24.533Z,22.47
2023-03-19T23:15:56.745Z,22.80
2023-03-19T23:18:32.188Z,19.60
2023-03-19T23:20:59.603Z,22.00
2023-03-19T23:23:27.185Z,22.87
2023-03-19T23:25:54.208Z,24.43
2023-03-19T23:28:24.596Z,22.80
2023-03-19T23:30:51.779Z,21.57
2023-03-19T23:33:20.115Z,22.47
2023-03-19T23:35:48.050Z,20.80
2023-03-19T23:38:15.114Z,23.60
2023-03-19T23:40:44.087Z,21.53
2023-03-19T23:43:21.923Z,23.90
2023-03-19T23:45:51.298Z,22.30
2023-03-19T23:48:21.659Z,21.33
2023-03-19T23:50:48.816Z,24.00
2023-03-19T23:53:21.865Z,24.77
2023-03-19T23:55:51.549Z,23.67
2023-03-19T23:58:19.116Z,25.60
